Terminal Aerodrome Forecast
Issued by NWS

Home | Current Version | Previous Version | Text Only | Print | Product List | Glossary On
Versions: 1 2 3 4 5 6 7 8 9 10 11 12 13 14 15 16 17 18 19 20 21 22 23 24 25 26 27 28
000
FTUS43 KDTX 292027 AAA
TAFPTK
TAF AMD
KPTK 292027Z 2920/3018 19021G29KT P6SM SCT070 OVC150
     FM292100 20019G29KT 4SM -SHRASN OVC025
     FM300100 24015G24KT 5SM HZ BKN007 OVC015
     FM300400 23012KT P6SM OVC010
     FM301400 27012KT P6SM BKN025=

USA.gov is the U.S. government's official web portal to all federal, state and local government web resources and services.